Lawson Creek (157) Station Data

Red Flag Warning: No
Fire Weather Zone: 250
SDGE Region: Eastern
Lat/Lon: 32.743/-116.732

Observations

Time Wind Speed/Gust Temp(F) RH Fuel Moist Fuel Temp(F) Dewpt(F) Tmax(F) Tmin(F) Accum Precip 10-min Precip SL Press(mb)
6/22 5:00am 82 4 G 5 69° 43% - - 46° 71.7° 66.8° - - -
6/22 4:50am 71 4 G 5 69° 48% - - 48° 71.7° 66.8° - - -
6/22 4:40am 81 3 G 4 68° 48% - - 48° 71.7° 66.8° - - -
6/22 4:30am 87 4 G 5 68° 49% - - 48° 71.7° 66.8° - - -
6/22 4:20am 73 4 G 5 69° 47% - - 48° 71.7° 66.8° - - -
6/22 4:10am 78 4 G 4 68° 53% - - 50° 71.7° 66.8° - - -
6/22 4:00am 87 4 G 5 68° 53% - - 50° 71.7° 66.8° - - -
6/22 3:50am 76 3 G 4 69° 51% - - 50° 71.7° 66.8° - - -
6/22 3:40am 73 3 G 4 70° 50% - - 50° 71.7° 66.8° - - -
6/22 3:30am 81 3 G 4 70° 52% - - 51° 71.7° 66.8° - - -
6/22 3:20am 73 4 G 4 70° 54% - - 52° 71.7° 66.8° - - -
6/22 3:10am 73 3 G 4 69° 55% - - 52° 71.7° 66.8° - - -
6/22 3:00am 73 4 G 4 69° 55% - - 53° 71.7° 66.8° - - -
6/22 2:50am 73 3 G 4 69° 57% - - 53° 71.7° 66.8° - - -
6/22 2:40am 77 3 G 4 68° 61% - - 54° 71.7° 66.8° - - -
6/22 2:30am 76 3 G 4 68° 59% - - 54° 71.7° 67.1° - - -
6/22 2:20am 71 3 G 4 68° 61% - - 54° 71.7° 67.1° - - -
6/22 2:10am 78 3 G 4 68° 62% - - 54° 71.7° 67.1° - - -
6/22 2:00am 74 3 G 4 69° 59% - - 54° 71.7° 68° - - -
6/22 1:50am 71 3 G 4 69° 57% - - 53° 71.7° 68° - - -
6/22 1:40am 74 3 G 3 69° 56% - - 53° 71.7° 68.2° - - -
6/22 1:30am 82 3 G 4 69° 55% - - 53° 71.7° 68.2° - - -
6/22 1:20am 76 3 G 4 70° 54% - - 52° 71.7° 68.3° - - -
6/22 1:10am 73 3 G 4 70° 52% - - 51° 71.7° 68.3° - - -
6/22 1:00am 77 3 G 4 69° 53% - - 51° 71.7° 68.3° - - -
6/22 12:50am 76 4 G 5 69° 53% - - 51° 71.7° 68.3° - - -
6/22 12:40am 79 3 G 4 70° 51% - - 51° 71.7° 68.7° - - -
6/22 12:30am 86 3 G 4 70° 50% - - 50° 71.7° 69.6° - - -
6/22 12:20am 80 3 G 4 71° 50% - - 51° 71.7° 69.8° - - -
6/22 12:10am 74 3 G 4 71° 53% - - 53° 71.7° 70.4° - - -
6/22 12:00am 71 4 G 4 70° 55% - - 53° 98° 69.3° - - -
6/21 11:50pm 81 3 G 4 70° 54% - - 53° 98° 69.7° - - -
6/21 11:40pm 73 3 G 4 71° 52% - - 53° 98° 69.7° - - -
6/21 11:30pm 71 4 G 4 71° 52% - - 52° 98° 69.7° - - -
6/21 11:10pm 75 3 G 4 71° 52% - - 53° 98° 69.7° - - -
6/21 11:00pm 79 3 G 4 71° 53% - - 53° 98° 69.7° - - -
6/21 10:40pm 76 3 G 4 71° 54% - - 53° 98° 69.7° - - -
6/21 10:30pm 87 3 G 4 72° 52% - - 53° 98° 69.7° - - -
6/21 10:20pm 80 3 G 3 72° 54% - - 54° 98° 69.7° - - -
6/21 10:10pm 84 4 G 5 72° 51% - - 53° 98° 69.7° - - -
6/21 10:00pm 105 2 G 3 73° 50% - - 53° 98° 69.7° - - -
6/21 9:40pm 78 2 G 4 74° 51% - - 54° 98° 69.7° - - -
6/21 9:30pm 85 3 G 4 74° 52% - - 55° 98° 69.7° - - -
6/21 9:20pm 87 3 G 4 73° 54% - - 55° 98° 69.7° - - -
6/21 9:10pm 77 3 G 3 73° 54% - - 56° 98° 69.7° - - -
6/21 9:00pm 74 3 G 4 73° 51% - - 54° 98° 69.7° - - -
6/21 8:50pm 84 2 G 3 74° 49% - - 54° 98° 69.7° - - -
6/21 8:40pm 89 3 G 4 75° 51% - - 55° 98° 69.7° - - -
6/21 8:30pm 85 2 G 3 75° 54% - - 57° 98° 69.7° - - -
6/21 8:20pm 83 2 G 3 77° 56% - - 60° 98° 69.7° - - -
6/21 8:10pm 66 1 G 2 78° 56% - - 61° 98° 69.7° - - -
6/21 8:00pm 80 1 G 2 80° 53% - - 61° 98° 69.7° - - -
6/21 7:50pm 1 1 G 1 81° 52% - - 62° 98° 69.7° - - -
6/21 7:40pm 265 2 G 3 82° 50% - - 61° 98° 69.7° - - -
6/21 7:20pm 277 2 G 4 86° 41% - - 60° 98° 69.7° - - -
6/21 6:40pm 279 2 G 4 88° 37% - - 58° 98° 69.7° - - -
6/21 6:30pm 276 2 G 4 87° 38% - - 59° 98° 69.7° - - -
6/21 6:10pm 280 4 G 7 88° 36% - - 58° 98° 69.7° - - -
6/21 6:00pm 250 3 G 7 89° 30% - - 54° 98° 69.7° - - -
6/21 5:50pm 277 4 G 7 89° 30% - - 54° 98° 69.7° - - -
6/21 5:40pm 296 3 G 6 89° 32% - - 55° 98° 69.7° - - -
6/21 5:30pm 267 5 G 8 89° 34% - - 57° 98° 69.7° - - -
6/21 5:20pm 287 4 G 8 89° 36% - - 59° 98° 69.7° - - -
6/21 5:10pm 282 4 G 7 89° 36% - - 59° 98° 69.7° - - -
6/21 5:00pm 275 5 G 9 90° 36% - - 59° 98° 69.7° - - -
6/21 4:50pm 281 4 G 8 89° 36% - - 59° 98° 69.7° - - -
6/21 4:40pm 293 4 G 7 90° 35% - - 59° 98° 69.7° - - -
6/21 4:30pm 290 4 G 8 90° 35% - - 59° 98° 69.7° - - -
6/21 4:20pm 298 4 G 8 90° 34% - - 58° 98° 69.7° - - -
6/21 4:10pm 290 5 G 10 91° 33% - - 58° 98° 69.7° - - -
6/21 4:00pm 307 4 G 9 91° 32% - - 57° 98° 69.7° - - -
6/21 3:50pm 280 5 G 9 92° 31% - - 57° 98° 69.7° - - -
6/21 3:40pm 292 5 G 9 92° 31% - - 57° 98° 69.7° - - -
6/21 3:30pm 295 4 G 8 92° 30% - - 56° 98° 69.7° - - -
6/21 3:20pm 297 5 G 12 92° 30% - - 57° 98° 69.7° - - -
6/21 3:10pm 299 5 G 9 93° 29% - - 56° 98° 69.7° - - -
6/21 3:00pm 294 4 G 9 94° 26% - - 53° 98° 69.7° - - -
6/21 2:50pm 280 4 G 10 94° 28% - - 55° 98° 69.7° - - -
6/21 2:40pm 276 5 G 8 94° 27% - - 55° 98° 69.7° - - -
6/21 2:30pm 288 5 G 10 94° 26% - - 54° 98° 69.7° - - -
6/21 2:20pm 295 4 G 9 95° 27% - - 55° 98° 69.7° - - -
6/21 2:10pm 300 4 G 9 95° 25% - - 54° 98° 69.7° - - -
6/21 2:00pm 291 5 G 12 95° 25% - - 54° 98° 69.7° - - -
6/21 1:50pm 302 5 G 9 96° 25% - - 54° 98° 69.7° - - -
6/21 1:40pm 290 5 G 10 97° 24% - - 54° 98° 69.7° - - -
6/21 1:30pm 309 3 G 8 96° 25% - - 54° 97.5° 69.7° - - -
6/21 1:20pm 294 4 G 9 96° 25% - - 54° 97° 69.7° - - -
6/21 1:10pm 317 3 G 8 96° 24% - - 53° 97° 69.7° - - -
6/21 1:00pm 303 4 G 9 95° 25% - - 54° 97° 69.7° - - -
6/21 12:50pm 296 5 G 10 95° 27% - - 55° 97° 69.7° - - -
6/21 12:40pm 309 4 G 9 95° 27% - - 56° 97° 69.7° - - -
6/21 12:30pm 309 3 G 8 95° 27% - - 56° 97° 69.7° - - -
6/21 12:20pm 299 4 G 9 95° 26% - - 55° 97° 69.7° - - -
6/21 12:10pm 287 5 G 10 95° 24% - - 53° 97° 69.7° - - -
6/21 12:00pm 291 5 G 9 95° 22% - - 51° 97° 69.7° - - -
6/21 11:50am 298 5 G 9 96° 20% - - 48° 97° 69.7° - - -
6/21 11:40am 301 5 G 8 96° 19% - - 47° 97° 69.7° - - -
6/21 11:30am 309 5 G 10 96° 18% - - 46° 96.9° 69.7° - - -
6/21 11:20am 303 3 G 8 96° 20% - - 48° 96.9° 69.7° - - -
6/21 11:10am 277 4 G 8 96° 19% - - 47° 96.7° 69.7° - - -
6/21 11:00am 277 4 G 7 95° 20% - - 48° 96.2° 69.7° - - -
6/21 10:50am 287 3 G 7 94° 22% - - 49° 95.7° 69.7° - - -
6/21 10:40am 292 4 G 7 94° 23% - - 50° 95.4° 69.7° - - -
6/21 10:30am 298 4 G 7 94° 22% - - 50° 95.4° 69.7° - - -
6/21 10:20am 289 4 G 7 94° 21% - - 48° 95.4° 69.7° - - -
6/21 10:10am 300 4 G 8 94° 21% - - 48° 94.8° 69.7° - - -
6/21 10:00am 290 4 G 7 93° 22% - - 49° 94.8° 69.7° - - -
6/21 9:50am 299 3 G 7 94° 22% - - 50° 94.8° 69.7° - - -
6/21 9:40am 297 3 G 6 93° 21% - - 48° 93.9° 69.7° - - -
6/21 9:30am 268 3 G 7 93° 21% - - 47° 93.6° 69.7° - - -
6/21 9:20am 260 4 G 6 92° 21% - - 46° 92.9° 69.7° - - -
6/21 9:10am 253 4 G 5 92° 21% - - 46° 92.9° 69.7° - - -
6/21 9:00am 269 3 G 5 92° 21% - - 46° 92.9° 69.7° - - -
6/21 8:50am 280 3 G 6 92° 21% - - 46° 92.9° 69.7° - - -
6/21 8:40am 308 2 G 3 92° 18% - - 43° 92.9° 69.7° - - -
6/21 8:30am 19 1 G 2 91° 23% - - 48° 92.1° 69.7° - - -
6/21 8:20am 24 1 G 1 90° 25% - - 50° 91.2° 69.7° - - -
6/21 8:10am 38 1 G 2 88° 29% - - 52° 89.4° 69.7° - - -
6/21 8:00am 68 2 G 2 87° 29% - - 51° 88° 69.7° - - -
6/21 7:50am 77 2 G 3 85° 31% - - 50° 85.7° 69.7° - - -
6/21 7:40am 91 2 G 3 83° 32% - - 50° 84° 69.7° - - -
6/21 7:30am 92 2 G 3 81° 33% - - 50° 81.8° 69.7° - - -
6/21 7:20am 91 3 G 3 79° 34% - - 48° 80° 69.7° - - -
6/21 7:10am 90 3 G 5 78° 34% - - 47° 78.8° 69.7° - - -
6/21 7:00am 97 4 G 5 77° 33% - - 45° 78.8° 69.7° - - -
6/21 6:50am 96 4 G 5 77° 30% - - 44° 78.8° 69.7° - - -
6/21 6:40am 101 4 G 5 76° 30% - - 43° 78.8° 69.7° - - -
6/21 6:30am 101 3 G 4 76° 31% - - 43° 78.8° 69.7° - - -
6/21 6:20am 104 4 G 5 75° 30% - - 42° 78.8° 69.7° - - -
6/21 6:10am 84 4 G 6 74° 32% - - 43° 78.8° 69.7° - - -
6/21 6:00am 80 5 G 6 75° 32% - - 43° 78.8° 69.7° - - -
6/21 5:50am 88 4 G 5 74° 34% - - 43° 78.8° 69.7° - - -
6/21 5:40am 79 5 G 6 75° 32% - - 43° 78.8° 69.7° - - -
6/21 5:30am 80 5 G 5 77° 30% - - 43° 78.8° 69.7° - - -
6/21 5:20am 91 4 G 5 76° 31% - - 43° 78.8° 69.7° - - -
6/21 5:10am 89 4 G 5 77° 31% - - 44° 78.8° 69.7° - - -
6/21 5:00am 96 4 G 6 77° 31% - - 44° 78.8° 69.7° - - -
6/21 4:50am 90 5 G 6 77° 34% - - 46° 78.1° 69.7° - - -
6/21 4:40am 86 5 G 6 75° 38% - - 48° 78.1° 69.7° - - -
6/21 4:30am 88 5 G 5 73° 43% - - 50° 78.1° 69.7° - - -
6/21 4:20am 85 4 G 5 72° 47% - - 51° 78.1° 69.7° - - -
6/21 4:10am 80 3 G 5 72° 48% - - 52° 78.1° 69.7° - - -
6/21 4:00am 75 3 G 4 71° 50% - - 52° 78.1° 69.7° - - -
6/21 3:50am 90 3 G 4 73° 48% - - 52° 78.1° 70.5° - - -
6/21 3:40am 73 3 G 5 71° 50% - - 52° 78.1° 70.5° - - -
6/21 3:30am 73 4 G 4 72° 49% - - 52° 78.1° 70.5° - - -
6/21 3:20am 77 4 G 5 72° 48% - - 52° 78.1° 70.5° - - -
6/21 3:10am 83 4 G 5 72° 48% - - 52° 78.1° 70.5° - - -
6/21 3:00am 73 4 G 5 72° 49% - - 52° 78.1° 70.5° - - -
6/21 2:50am 82 4 G 5 72° 49% - - 52° 78.1° 70.5° - - -
6/21 2:40am 78 3 G 4 73° 48% - - 52° 78.1° 71° - - -
6/21 2:30am 73 4 G 5 73° 47% - - 52° 78.1° 71° - - -
6/21 2:20am 73 3 G 4 73° 47% - - 52° 78.1° 71° - - -
6/21 2:10am 78 3 G 4 72° 48% - - 51° 78.1° 71° - - -
6/21 2:00am 72 4 G 4 73° 46% - - 51° 78.1° 72.4° - - -
6/21 1:50am 78 4 G 4 75° 44% - - 51° 78.1° 73.1° - - -
6/21 1:40am 94 3 G 4 75° 43% - - 51° 78.1° 73.3° - - -
6/21 1:30am 98 3 G 4 75° 43% - - 51° 78.1° 73.3° - - -
6/21 1:20am 87 3 G 4 75° 43% - - 51° 78.1° 73.3° - - -
6/21 1:10am 84 5 G 6 75° 43% - - 51° 78.1° 73.3° - - -
6/21 1:00am 78 4 G 5 75° 44% - - 51° 78.1° 73.3° - - -
6/21 12:50am 79 4 G 6 77° 41% - - 51° 78.1° 75.3° - - -
6/21 12:40am 85 4 G 5 76° 42% - - 51° 78.1° 75.3° - - -
6/21 12:30am 87 4 G 6 77° 42% - - 52° 78.1° 75.4° - - -
6/21 12:20am 84 4 G 5 76° 42% - - 51° 78.1° 75.4° - - -
6/21 12:10am 81 4 G 6 77° 41% - - 51° 78.1° 75.9° - - -
6/21 12:00am 88 4 G 5 76° 42% - - 52° 97.7° 68° - - -
6/20 11:50pm 93 4 G 4 76° 42% - - 52° 97.7° 68° - - -
6/20 11:40pm 91 3 G 4 76° 44% - - 52° 97.7° 68° - - -
6/20 11:30pm 89 4 G 5 75° 45% - - 52° 97.7° 68° - - -
6/20 11:20pm 92 3 G 5 75° 45% - - 52° 97.7° 68° - - -
6/20 11:10pm 86 4 G 5 76° 44% - - 53° 97.7° 68° - - -
6/20 11:00pm 84 3 G 5 76° 45% - - 53° 97.7° 68° - - -
6/20 10:50pm 84 3 G 5 76° 45% - - 53° 97.7° 68° - - -
6/20 10:40pm 94 4 G 5 77° 43% - - 53° 97.7° 68° - - -
6/20 10:30pm 91 4 G 5 79° 42% - - 53° 97.7° 68° - - -
6/20 10:20pm 113 2 G 3 80° 40% - - 54° 97.7° 68° - - -
6/20 10:10pm 116 2 G 4 78° 43% - - 54° 97.7° 68° - - -
6/20 10:00pm 108 3 G 4 77° 46% - - 54° 97.7° 68° - - -
6/20 9:50pm 98 3 G 4 78° 45% - - 54° 97.7° 68° - - -
6/20 9:40pm 90 4 G 4 79° 44% - - 55° 97.7° 68° - - -
6/20 9:30pm 87 4 G 5 77° 46% - - 55° 97.7° 68° - - -
6/20 9:20pm 86 4 G 5 76° 47% - - 55° 97.7° 68° - - -
6/20 9:10pm 93 4 G 5 76° 48% - - 55° 97.7° 68° - - -
6/20 9:00pm 82 3 G 4 75° 50% - - 55° 97.7° 68° - - -
6/20 8:50pm 87 4 G 5 75° 50% - - 55° 97.7° 68° - - -
6/20 8:40pm 83 4 G 5 75° 51% - - 56° 97.7° 68° - - -
6/20 8:30pm 77 4 G 5 76° 51% - - 56° 97.7° 68° - - -
6/20 8:20pm 74 3 G 4 76° 52% - - 57° 97.7° 68° - - -
6/20 8:10pm 76 3 G 4 78° 50% - - 58° 97.7° 68° - - -
6/20 8:00pm 84 2 G 3 80° 47% - - 58° 97.7° 68° - - -
6/20 7:50pm 73 1 G 2 83° 43% - - 58° 97.7° 68° - - -
6/20 7:40pm 341 0 G 1 85° 40% - - 58° 97.7° 68° - - -
6/20 7:30pm 288 2 G 3 86° 38% - - 57° 97.7° 68° - - -
6/20 7:20pm 276 2 G 3 86° 37% - - 57° 97.7° 68° - - -
6/20 7:10pm 268 3 G 4 87° 36% - - 57° 97.7° 68° - - -
6/20 7:00pm 273 2 G 3 88° 35% - - 57° 97.7° 68° - - -
6/20 6:50pm 308 1 G 4 89° 34% - - 57° 97.7° 68° - - -
6/20 6:40pm 305 2 G 5 88° 34% - - 56° 97.7° 68° - - -
6/20 6:30pm 274 5 G 7 88° 34% - - 56° 97.7° 68° - - -
6/20 6:20pm 276 4 G 7 89° 33% - - 56° 97.7° 68° - - -
6/20 6:10pm 274 4 G 7 90° 33% - - 57° 97.7° 68° - - -
6/20 6:00pm 300 3 G 7 91° 32% - - 57° 97.7° 68° - - -